Time;durP1;ratioP1;P1;durP2;ratioP2;P2;SDS_P1;SDS_P2;PMS_P1;PMS_P2;Temp;Humidity;BMP_temperature;BMP_pressure;BME280_temperature;BME280_humidity;BME280_pressure;Samples;Min_cycle;Max_cycle;Signal;HPM_P1;HPM_P2
2023/09/15 00:01:32;;;;;;;;;;;16.80;46.30;;;15.93;48.25;101918.56;12121113;19;19923;-87
2023/09/15 00:05:34;;;;;;;;;;;16.80;46.30;;;15.93;48.24;101923.81;12128154;19;20354;-87
2023/09/15 00:09:36;;;;;;;;;;;16.70;46.30;;;15.87;48.15;101932.06;12134068;19;20738;-87
2023/09/15 00:13:37;;;;;;;;;;;16.60;46.30;;;15.82;48.26;101934.13;12137205;19;19930;-87
2023/09/15 00:17:42;;;;;;;;;;;16.60;46.30;;;15.59;48.41;101905.63;12133735;19;20755;-87
2023/09/15 00:21:44;;;;;;;;;;;16.60;46.30;;;15.80;48.32;101936.00;12134804;19;19943;-86
2023/09/15 00:25:46;;;;;;;;;;;16.60;46.40;;;15.76;48.35;101941.53;12133652;19;20210;-87
2023/09/15 00:29:48;;;;;;;;;;;16.50;46.30;;;15.74;48.44;101948.66;12138227;19;19934;-87
2023/09/15 00:33:49;;;;;;;;;;;16.50;46.40;;;15.68;48.53;101944.56;12139808;19;20681;-87
2023/09/15 00:37:51;;;;;;;;;;;16.40;46.40;;;15.63;48.44;101947.47;12139620;19;19927;-87
2023/09/15 00:41:53;;;;;;;;;;;16.40;46.40;;;15.47;48.39;101921.19;12136895;19;19919;-87
2023/09/15 00:45:55;;;;;;;;;;;16.40;46.40;;;15.42;48.53;101931.13;12135555;19;19919;-87
2023/09/15 00:49:57;;;;;;;;;;;16.30;46.40;;;15.48;48.57;101943.09;12132581;19;20193;-87
2023/09/15 00:53:58;;;;;;;;;;;16.30;46.40;;;15.48;48.42;101943.94;12137932;19;21186;-87
2023/09/15 00:58:03;;;;;;;;;;;16.30;46.40;;;15.45;48.52;101944.09;12136388;19;20298;-87
2023/09/15 01:02:04;;;;;;;;;;;16.30;46.50;;;15.43;48.53;101940.69;12137231;19;19927;-87
2023/09/15 01:06:06;;;;;;;;;;;16.20;46.50;;;15.37;48.52;101932.31;12134027;19;20359;-87
2023/09/15 01:10:08;;;;;;;;;;;16.20;46.50;;;15.36;48.51;101934.06;12133356;19;19930;-87
2023/09/15 01:14:09;;;;;;;;;;;16.20;46.50;;;15.31;48.63;101932.63;12138570;19;20006;-87
2023/09/15 01:18:14;;;;;;;;;;;16.20;46.50;;;15.36;48.74;101941.13;12132529;19;19925;-87
2023/09/15 01:22:23;;;;;;;;;;;16.10;46.50;;;15.32;48.63;101943.09;12138068;19;19930;-87
2023/09/15 01:26:48;;;;;;;;;;;16.10;46.50;;;14.94;48.69;101884.69;12134632;19;20052;-87
2023/09/15 01:30:50;;;;;;;;;;;16.10;46.50;;;15.22;48.45;101942.75;12133409;19;20264;-87
2023/09/15 01:34:52;;;;;;;;;;;16.00;46.50;;;15.15;48.64;101927.38;12134740;19;19919;-87
2023/09/15 01:38:54;;;;;;;;;;;16.00;46.50;;;15.04;48.52;101920.94;12133356;19;20196;-87
2023/09/15 01:42:55;;;;;;;;;;;16.00;46.50;;;15.14;48.59;101938.84;12134259;19;20735;-87
2023/09/15 01:46:57;;;;;;;;;;;15.90;46.40;;;15.09;48.64;101938.25;12135591;19;19928;-87
2023/09/15 01:50:59;;;;;;;;;;;15.90;46.40;;;14.98;48.72;101923.88;12132105;19;20219;-87
2023/09/15 01:55:02;;;;;;;;;;;15.90;46.40;;;14.98;48.63;101928.31;12133947;19;19919;-87
2023/09/15 01:59:04;;;;;;;;;;;15.80;46.40;;;14.96;48.64;101936.28;12128878;19;19926;-87
2023/09/15 02:03:06;;;;;;;;;;;15.80;46.50;;;14.92;48.79;101937.38;12131796;19;19915;-86
2023/09/15 02:07:08;;;;;;;;;;;15.80;46.50;;;14.87;48.88;101930.66;12130116;19;20291;-87
2023/09/15 02:11:10;;;;;;;;;;;15.70;46.50;;;14.86;48.75;101940.34;12127907;19;20347;-86
2023/09/15 02:15:11;;;;;;;;;;;15.70;46.50;;;14.85;48.76;101949.16;12130871;19;19945;-86
2023/09/15 02:19:13;;;;;;;;;;;15.70;46.50;;;14.75;48.85;101937.44;12129968;19;19925;-86
2023/09/15 02:23:15;;;;;;;;;;;15.70;46.50;;;14.75;48.75;101942.72;12129920;19;19928;-86
2023/09/15 02:27:17;;;;;;;;;;;15.60;46.50;;;14.72;48.90;101943.72;12129929;19;19996;-86
2023/09/15 02:31:18;;;;;;;;;;;15.60;46.50;;;14.64;48.91;101934.53;12127437;19;19927;-86
2023/09/15 02:35:20;;;;;;;;;;;15.50;46.50;;;14.62;48.85;101939.03;12131545;19;19934;-86
2023/09/15 02:39:23;;;;;;;;;;;15.50;46.50;;;14.63;48.75;101945.97;12129515;19;20268;-86
2023/09/15 02:43:25;;;;;;;;;;;15.50;46.60;;;14.53;48.80;101928.06;12128747;19;20318;-86
2023/09/15 02:47:30;;;;;;;;;;;15.50;46.60;;;14.54;49.04;101935.00;12127161;19;19953;-86
2023/09/15 02:51:33;;;;;;;;;;;15.40;46.60;;;14.43;48.88;101929.44;12125977;19;19937;-87
2023/09/15 02:55:37;;;;;;;;;;;15.40;46.60;;;14.53;48.96;101938.56;12128550;19;19951;-87
2023/09/15 02:59:39;;;;;;;;;;;15.40;46.60;;;14.46;49.06;101929.28;12126744;19;20438;-86
2023/09/15 03:03:42;;;;;;;;;;;15.30;46.60;;;14.48;48.98;101943.19;12126918;19;20581;-86
2023/09/15 03:07:44;;;;;;;;;;;15.30;46.70;;;14.40;49.09;101926.97;12128771;19;20543;-86
2023/09/15 03:11:47;;;;;;;;;;;15.30;46.70;;;14.37;48.94;101924.50;12126648;19;20686;-86
2023/09/15 03:15:49;;;;;;;;;;;15.30;46.60;;;14.39;48.99;101931.38;12126063;19;20406;-86
2023/09/15 03:19:51;;;;;;;;;;;15.20;46.50;;;14.22;49.00;101899.84;12127151;19;19919;-86
2023/09/15 03:23:54;;;;;;;;;;;15.30;46.60;;;14.31;49.02;101932.69;12125246;19;20666;-86
2023/09/15 03:27:56;;;;;;;;;;;15.20;46.60;;;14.06;49.04;101899.78;12126504;19;20187;-86
2023/09/15 03:31:57;;;;;;;;;;;15.10;46.50;;;14.17;49.00;101931.59;12129396;19;20001;-86
2023/09/15 03:36:00;;;;;;;;;;;15.10;46.50;;;14.19;49.12;101938.59;12126823;19;19923;-86
2023/09/15 03:40:04;;;;;;;;;;;15.10;46.50;;;14.17;48.99;101931.59;12125442;19;19919;-86
2023/09/15 03:44:07;;;;;;;;;;;15.10;46.60;;;14.00;49.15;101921.13;12136447;19;19935;-86
2023/09/15 03:48:09;;;;;;;;;;;15.00;46.60;;;14.06;49.20;101933.09;12136035;19;19919;-86
2023/09/15 03:52:11;;;;;;;;;;;15.00;46.60;;;14.02;49.10;101928.94;12138748;19;20184;-86
2023/09/15 03:56:12;;;;;;;;;;;14.90;46.50;;;14.00;49.12;101926.38;12135605;19;20321;-86
2023/09/15 04:00:17;;;;;;;;;;;14.90;46.60;;;14.00;49.06;101918.50;12131888;19;20469;-86
2023/09/15 04:04:19;;;;;;;;;;;14.90;46.70;;;13.88;49.14;101906.84;12136999;19;20726;-87
2023/09/15 04:08:20;;;;;;;;;;;14.80;46.60;;;13.95;49.20;101925.75;12143127;19;19930;-87
2023/09/15 04:12:21;;;;;;;;;;;14.80;46.60;;;13.85;49.15;101919.25;12138217;19;20770;-86
2023/09/15 04:16:23;;;;;;;;;;;14.90;46.60;;;13.89;49.15;101929.53;12148618;19;20653;-88
2023/09/15 04:20:25;;;;;;;;;;;14.80;46.60;;;13.79;49.10;101919.56;12146179;19;20212;-88
2023/09/15 04:24:27;;;;;;;;;;;14.80;46.60;;;13.77;49.26;101918.78;12145893;19;19915;-88
2023/09/15 04:28:28;;;;;;;;;;;14.70;46.60;;;13.75;49.16;101926.75;12144966;19;20914;-87
2023/09/15 04:32:30;;;;;;;;;;;14.70;46.60;;;13.75;49.32;101936.41;12142442;19;19922;-87
2023/09/15 04:36:32;;;;;;;;;;;14.70;46.70;;;13.71;49.23;101931.28;12147732;19;19910;-88
2023/09/15 04:40:33;;;;;;;;;;;14.70;46.70;;;13.67;49.27;101928.91;12144675;19;20799;-88
2023/09/15 04:44:35;;;;;;;;;;;14.70;46.70;;;13.59;49.26;101921.41;12144130;19;20307;-88
2023/09/15 04:48:37;;;;;;;;;;;14.70;46.70;;;13.46;49.30;101907.16;12145771;19;19938;-88
2023/09/15 04:52:39;;;;;;;;;;;14.60;46.70;;;13.38;49.25;101893.56;12144405;19;20196;-88
2023/09/15 04:56:40;;;;;;;;;;;14.60;46.70;;;13.64;49.33;101948.28;12147257;19;19926;-88
2023/09/15 05:00:42;;;;;;;;;;;14.60;46.80;;;13.62;49.40;101944.88;12143609;19;19927;-88
2023/09/15 05:04:43;;;;;;;;;;;14.60;46.80;;;13.45;49.36;101914.19;12147835;19;20292;-88
2023/09/15 05:08:47;;;;;;;;;;;14.60;46.80;;;13.53;49.27;101931.31;12152623;19;19922;-88
2023/09/15 05:12:49;;;;;;;;;;;14.60;47.20;;;13.60;49.40;101944.09;12152806;19;19930;-88
2023/09/15 05:16:50;;;;;;;;;;;14.60;46.80;;;13.58;49.48;101945.09;12154792;19;19919;-88
2023/09/15 05:20:52;;;;;;;;;;;14.60;46.90;;;13.60;49.42;101946.72;12142209;19;19918;-88
2023/09/15 05:24:55;;;;;;;;;;;14.60;46.90;;;13.46;49.53;101928.16;12142393;19;19930;-88
2023/09/15 05:28:57;;;;;;;;;;;14.60;46.90;;;13.55;49.48;101940.84;12155051;19;19915;-88
2023/09/15 05:32:59;;;;;;;;;;;14.60;46.90;;;13.53;49.51;101945.31;12156631;19;19919;-88
2023/09/15 05:37:03;;;;;;;;;;;14.60;47.00;;;13.52;49.61;101948.84;12157665;19;20237;-88
2023/09/15 05:41:04;;;;;;;;;;;14.60;47.00;;;13.49;49.57;101935.88;12143169;19;19927;-88
2023/09/15 05:45:07;;;;;;;;;;;14.50;47.00;;;13.49;49.51;101957.72;12132925;19;20644;-87
2023/09/15 05:49:10;;;;;;;;;;;14.60;47.10;;;13.40;49.56;101936.34;12137335;19;20723;-87
2023/09/15 05:53:11;;;;;;;;;;;14.60;47.10;;;13.50;49.54;101963.81;12143011;19;19925;-88
2023/09/15 05:57:13;;;;;;;;;;;14.50;47.10;;;13.49;49.61;101954.25;12139611;19;20282;-87
2023/09/15 06:01:14;;;;;;;;;;;14.60;47.20;;;13.50;49.73;101950.69;12137825;19;19922;-88
2023/09/15 06:05:19;;;;;;;;;;;14.60;47.30;;;13.58;49.63;101964.28;12140897;19;19969;-88
2023/09/15 06:09:21;;;;;;;;;;;14.60;47.20;;;13.54;49.80;101965.38;12140098;19;19919;-87
2023/09/15 06:13:23;;;;;;;;;;;14.60;47.40;;;13.31;49.75;101910.53;12142171;19;19918;-89
2023/09/15 06:17:25;;;;;;;;;;;14.60;47.50;;;13.61;49.84;101952.81;12145022;19;20191;-89
2023/09/15 06:21:27;;;;;;;;;;;14.70;47.70;;;13.65;49.79;101957.84;12148934;19;19930;-88
2023/09/15 06:25:30;;;;;;;;;;;14.70;47.80;;;13.57;49.81;101933.75;12142832;19;20787;-88
2023/09/15 06:29:31;;;;;;;;;;;14.70;47.90;;;13.55;49.97;101919.84;12140826;19;20322;-87
2023/09/15 06:33:33;;;;;;;;;;;14.80;48.10;;;13.86;49.87;101962.97;12147282;19;19929;-87
2023/09/15 06:37:34;;;;;;;;;;;14.90;48.50;;;13.79;50.08;101940.56;12144024;19;19922;-87
2023/09/15 06:41:36;;;;;;;;;;;15.00;48.70;;;13.98;50.17;101957.09;12135237;19;20220;-88
2023/09/15 06:45:37;;;;;;;;;;;15.10;48.80;;;14.02;50.37;101956.03;12135545;19;20739;-87
2023/09/15 06:49:39;;;;;;;;;;;15.10;48.80;;;14.20;50.23;101969.16;12137981;19;19919;-88
2023/09/15 06:53:40;;;;;;;;;;;15.30;49.20;;;14.08;50.35;101934.72;12141891;19;20752;-87
2023/09/15 06:57:42;;;;;;;;;;;15.40;49.30;;;14.45;50.44;101972.25;12144941;19;20649;-88
2023/09/15 07:01:43;;;;;;;;;;;15.60;49.50;;;14.44;50.58;101939.00;12139197;19;19927;-88
2023/09/15 07:05:45;;;;;;;;;;;15.80;49.80;;;14.75;50.67;101964.59;12138016;19;20744;-88
2023/09/15 07:09:47;;;;;;;;;;;15.90;49.90;;;14.87;50.70;101955.19;12132165;19;19933;-88
2023/09/15 07:13:48;;;;;;;;;;;16.10;50.10;;;15.09;50.64;101961.91;12135554;19;20006;-88
2023/09/15 07:17:50;;;;;;;;;;;16.20;50.00;;;15.20;50.72;101957.78;12138794;19;19926;-89
2023/09/15 07:21:52;;;;;;;;;;;16.40;50.30;;;15.41;50.87;101968.03;12140679;19;20699;-87
2023/09/15 07:25:53;;;;;;;;;;;16.60;50.60;;;15.54;51.12;101965.59;12139113;19;19923;-88
2023/09/15 07:29:54;;;;;;;;;;;16.70;50.30;;;15.68;50.99;101955.97;12141076;19;20801;-88
2023/09/15 07:33:56;;;;;;;;;;;17.00;50.50;;;15.92;51.03;101964.25;12138276;19;20582;-88
2023/09/15 07:37:58;;;;;;;;;;;17.10;51.30;;;16.09;51.27;101944.00;12139846;19;19922;-87
2023/09/15 07:42:00;;;;;;;;;;;17.30;50.80;;;16.24;51.03;101942.25;12135327;19;20484;-88
2023/09/15 07:46:01;;;;;;;;;;;17.50;50.50;;;16.37;51.17;101940.56;12133221;19;20395;-88
2023/09/15 07:50:04;;;;;;;;;;;17.70;50.60;;;16.67;51.44;101951.03;12135172;19;20346;-88
2023/09/15 07:54:06;;;;;;;;;;;17.90;50.90;;;16.96;51.27;101961.63;12137055;19;19919;-87
2023/09/15 07:58:07;;;;;;;;;;;18.20;50.90;;;17.01;51.53;101941.94;12134875;19;20470;-87
2023/09/15 08:02:08;;;;;;;;;;;18.40;50.80;;;17.37;51.53;101958.16;12134690;19;20266;-87
2023/09/15 08:06:10;;;;;;;;;;;18.70;50.90;;;17.66;51.66;101975.63;12133604;19;19946;-88
2023/09/15 08:10:13;;;;;;;;;;;18.90;50.70;;;17.77;51.70;101950.25;12131258;19;20914;-87
2023/09/15 08:14:15;;;;;;;;;;;19.20;50.60;;;18.02;51.83;101960.94;12134150;19;20205;-87
2023/09/15 08:18:17;;;;;;;;;;;19.40;50.50;;;18.27;51.81;101949.56;12134163;19;20210;-87
2023/09/15 08:22:19;;;;;;;;;;;19.60;50.50;;;18.54;51.77;101954.75;12135682;19;19933;-87
2023/09/15 08:26:21;;;;;;;;;;;19.90;50.40;;;18.67;51.53;101944.16;12136868;19;19925;-87
2023/09/15 08:30:24;;;;;;;;;;;20.10;50.10;;;18.95;51.77;101952.81;12144622;19;20244;-87
2023/09/15 08:34:26;;;;;;;;;;;20.30;50.20;;;19.22;51.91;101955.31;12150189;19;20017;-88
2023/09/15 08:38:31;;;;;;;;;;;20.60;50.40;;;19.44;51.83;101950.16;12145956;19;20172;-88
2023/09/15 08:42:33;;;;;;;;;;;20.80;50.20;;;19.65;52.08;101944.22;12148866;19;20386;-87
2023/09/15 08:46:34;;;;;;;;;;;21.00;50.00;;;19.88;52.26;101948.69;12141439;19;19922;-87
2023/09/15 08:50:37;;;;;;;;;;;21.30;50.00;;;19.94;51.61;101909.41;12139822;19;19938;-87
2023/09/15 08:54:39;;;;;;;;;;;21.50;49.80;;;20.27;51.74;101937.81;12139500;19;20675;-87
2023/09/15 08:58:41;;;;;;;;;;;21.70;49.60;;;20.45;52.01;101936.41;12133363;19;19922;-87
2023/09/15 09:02:42;;;;;;;;;;;21.90;49.70;;;20.67;51.88;101940.91;12133494;19;19921;-87
2023/09/15 09:06:45;;;;;;;;;;;22.10;49.50;;;20.89;51.89;101941.84;12131389;19;20679;-87
2023/09/15 09:10:48;;;;;;;;;;;22.30;49.40;;;21.06;52.04;101935.19;12128337;19;19931;-88
2023/09/15 09:14:54;;;;;;;;;;;22.50;49.40;;;21.23;51.82;101929.38;12140264;19;19919;-87
2023/09/15 09:19:06;;;;;;;;;;;22.70;49.20;;;21.40;51.72;101925.38;12143176;19;19923;-88
2023/09/15 09:23:07;;;;;;;;;;;22.90;48.90;;;21.59;51.46;101930.00;12144484;19;19943;-87
2023/09/15 09:27:10;;;;;;;;;;;23.10;48.80;;;21.81;51.68;101932.56;12146763;19;19939;-86
2023/09/15 09:31:12;;;;;;;;;;;23.20;48.80;;;22.02;51.79;101940.56;12139381;19;19951;-88
2023/09/15 09:35:14;;;;;;;;;;;23.40;48.80;;;21.93;51.85;101893.47;12141623;19;20396;-86
2023/09/15 09:39:15;;;;;;;;;;;23.50;48.70;;;22.28;51.56;101924.22;12138605;19;19941;-86
2023/09/15 09:43:18;;;;;;;;;;;23.70;48.80;;;22.42;51.36;101918.56;12142750;19;21001;-86
2023/09/15 09:47:21;;;;;;;;;;;23.90;48.70;;;22.62;51.14;101921.28;12138665;19;19926;-87
2023/09/15 09:51:23;;;;;;;;;;;24.00;48.50;;;22.79;51.45;101917.13;12136647;19;19943;-86
2023/09/15 09:55:25;;;;;;;;;;;24.20;48.30;;;22.96;51.30;101920.03;12140704;19;20290;-86
2023/09/15 09:59:27;;;;;;;;;;;24.30;48.40;;;23.10;51.43;101918.81;12139618;19;20050;-87
2023/09/15 10:03:28;;;;;;;;;;;24.40;48.30;;;23.13;51.36;101893.72;12138450;19;20638;-87
2023/09/15 10:07:30;;;;;;;;;;;24.50;48.30;;;23.38;51.33;101905.66;12126222;19;19929;-87
2023/09/15 10:11:34;;;;;;;;;;;24.70;48.20;;;23.55;51.22;101906.78;12120755;19;20409;-87
2023/09/15 10:15:36;;;;;;;;;;;24.80;48.10;;;23.66;51.15;101893.31;12126584;19;20335;-87
2023/09/15 10:19:39;;;;;;;;;;;25.00;47.40;;;23.74;51.17;101888.13;12128513;19;19955;-87
2023/09/15 10:23:41;;;;;;;;;;;25.00;46.60;;;23.89;50.74;101895.69;12122638;19;19953;-87
2023/09/15 10:27:45;;;;;;;;;;;25.10;47.30;;;23.99;50.83;101892.00;12123632;19;20740;-87
2023/09/15 10:31:47;;;;;;;;;;;25.20;47.10;;;23.94;50.58;101864.91;12119493;19;20857;-86
2023/09/15 10:35:49;;;;;;;;;;;25.30;47.10;;;24.10;50.03;101875.00;12120592;19;19934;-87
2023/09/15 10:39:59;;;;;;;;;;;25.40;46.20;;;24.18;50.59;101874.28;12122280;19;19923;-87
2023/09/15 10:44:01;;;;;;;;;;;25.40;47.00;;;24.27;50.47;101870.72;12122438;19;19918;-86
2023/09/15 10:48:04;;;;;;;;;;;25.50;46.50;;;24.31;50.38;101857.94;12119983;19;19922;-87
2023/09/15 10:52:07;;;;;;;;;;;25.50;46.70;;;24.41;50.44;101858.72;12125756;19;19922;-87
2023/09/15 10:56:09;;;;;;;;;;;25.60;46.60;;;24.55;50.12;101866.28;12118927;19;19967;-87
2023/09/15 11:00:11;;;;;;;;;;;25.70;45.50;;;24.60;50.14;101868.47;12123618;19;19918;-87
2023/09/15 11:04:21;;;;;;;;;;;25.80;46.50;;;24.68;49.83;101858.75;12119325;19;19923;-87
2023/09/15 11:08:23;;;;;;;;;;;25.80;46.00;;;24.70;49.52;101845.25;12126177;19;20391;-87
2023/09/15 11:12:25;;;;;;;;;;;25.90;46.10;;;24.67;49.82;101830.34;12124498;19;19923;-87
2023/09/15 11:16:27;;;;;;;;;;;25.90;46.20;;;24.82;49.58;101843.22;12114503;19;19930;-87
2023/09/15 11:20:29;;;;;;;;;;;25.90;45.90;;;24.90;49.28;101837.94;12120819;19;20018;-87
2023/09/15 11:24:32;;;;;;;;;;;26.00;46.40;;;24.89;49.60;101820.22;12131168;19;20738;-87
2023/09/15 11:28:34;;;;;;;;;;;26.00;46.30;;;25.01;49.54;101832.38;12125657;19;19979;-88
2023/09/15 11:32:36;;;;;;;;;;;26.10;45.90;;;25.05;49.19;101815.03;12120954;19;19929;-87
2023/09/15 11:36:38;;;;;;;;;;;26.20;46.10;;;25.14;49.00;101822.16;12121261;19;20025;-87
2023/09/15 11:40:46;;;;;;;;;;;26.20;45.70;;;25.25;49.00;101821.09;12120214;19;19918;-88
2023/09/15 11:44:47;;;;;;;;;;;26.30;45.70;;;25.30;48.63;101818.81;12122961;19;19939;-90
2023/09/15 11:48:49;;;;;;;;;;;26.40;45.90;;;25.27;48.64;101796.88;12118918;19;19931;-87
2023/09/15 11:52:51;;;;;;;;;;;26.50;45.20;;;25.45;48.73;101818.25;12125556;19;20704;-86
2023/09/15 11:56:53;;;;;;;;;;;26.50;45.30;;;25.45;48.90;101821.75;12121271;19;19918;-87
2023/09/15 12:00:55;;;;;;;;;;;26.50;45.40;;;25.28;48.48;101782.53;12121863;19;19943;-87
2023/09/15 12:04:57;;;;;;;;;;;26.50;45.40;;;25.21;48.41;101771.59;12132407;19;19919;-87
2023/09/15 12:08:58;;;;;;;;;;;26.50;45.60;;;25.39;48.23;101801.81;12142808;19;20680;-88
2023/09/15 12:13:00;;;;;;;;;;;26.50;45.80;;;25.38;48.44;101799.28;12149504;19;19922;-87
2023/09/15 12:17:02;;;;;;;;;;;26.50;45.40;;;25.38;48.15;101793.94;12143467;19;19934;-88
2023/09/15 12:21:14;;;;;;;;;;;26.40;45.60;;;25.30;48.51;101781.38;12143092;19;20364;-88
2023/09/15 12:25:16;;;;;;;;;;;26.30;45.60;;;25.29;48.27;101794.88;12141053;19;19919;-89
2023/09/15 12:29:18;;;;;;;;;;;26.30;45.50;;;24.97;48.21;101725.94;12133903;19;20795;-88
2023/09/15 12:33:20;;;;;;;;;;;26.30;45.70;;;25.32;47.97;101783.88;12132983;19;19926;-88
2023/09/15 12:37:26;;;;;;;;;;;26.30;46.10;;;25.27;48.11;101760.28;12131217;19;20764;-88
2023/09/15 12:41:33;;;;;;;;;;;26.30;45.80;;;25.39;48.14;101763.56;12128919;19;20464;-86
2023/09/15 12:45:35;;;;;;;;;;;26.30;45.80;;;25.30;48.01;101729.72;12129486;19;19923;-88
2023/09/15 12:49:37;;;;;;;;;;;26.30;45.30;;;25.34;47.73;101715.03;12131298;19;20373;-88
2023/09/15 12:53:39;;;;;;;;;;;26.40;45.30;;;25.44;47.93;101726.47;12131504;19;20956;-89
2023/09/15 12:57:41;;;;;;;;;;;26.40;45.50;;;25.55;48.04;101739.59;12129600;19;20258;-87
2023/09/15 13:01:43;;;;;;;;;;;26.50;45.70;;;25.58;47.75;101747.28;12126605;19;19957;-88
2023/09/15 13:05:44;;;;;;;;;;;26.50;45.10;;;25.58;47.74;101741.09;12126520;19;19922;-88
2023/09/15 13:09:46;;;;;;;;;;;26.50;45.20;;;25.52;47.78;101723.84;12128054;19;20211;-88
2023/09/15 13:13:47;;;;;;;;;;;26.50;44.90;;;25.56;47.62;101719.00;12130188;19;19943;-88
2023/09/15 13:17:49;;;;;;;;;;;26.60;45.00;;;25.70;47.58;101739.81;12131999;19;20763;-88
2023/09/15 13:21:51;;;;;;;;;;;26.60;45.10;;;25.68;47.60;101727.59;12132026;19;20331;-88
2023/09/15 13:25:52;;;;;;;;;;;26.60;45.10;;;25.63;47.23;101721.88;12122490;19;19933;-88
2023/09/15 13:29:57;;;;;;;;;;;26.60;44.80;;;25.43;47.11;101689.19;12127174;19;19915;-88
2023/09/15 13:33:59;;;;;;;;;;;26.60;44.70;;;25.64;47.09;101712.88;12128572;19;20794;-88
2023/09/15 13:38:01;;;;;;;;;;;26.60;44.90;;;25.57;47.14;101691.25;12129159;19;20842;-87
2023/09/15 13:42:04;;;;;;;;;;;26.60;45.00;;;25.68;47.46;101707.06;12129028;19;19918;-89
2023/09/15 13:46:05;;;;;;;;;;;26.60;44.60;;;25.78;46.91;101706.91;12127102;19;20755;-88
2023/09/15 13:50:11;;;;;;;;;;;26.60;44.50;;;25.79;46.97;101700.59;12119619;19;21926;-88
2023/09/15 13:54:12;;;;;;;;;;;26.70;44.50;;;25.79;47.26;101689.88;12127499;19;19934;-87
2023/09/15 13:58:17;;;;;;;;;;;26.70;44.50;;;25.81;46.66;101701.22;12126320;19;20384;-88
2023/09/15 14:02:18;;;;;;;;;;;26.70;44.50;;;25.58;47.07;101667.03;12131226;19;20831;-89
2023/09/15 14:06:19;;;;;;;;;;;26.60;44.40;;;25.60;46.83;101664.22;12127326;19;19926;-89
2023/09/15 14:10:21;;;;;;;;;;;26.60;44.30;;;25.67;46.69;101680.44;12126576;19;19927;-87
2023/09/15 14:14:23;;;;;;;;;;;26.60;44.10;;;25.57;46.88;101678.75;12128539;19;20267;-87
2023/09/15 14:18:26;;;;;;;;;;;26.50;43.80;;;25.60;46.46;101689.13;12127721;19;19943;-88
2023/09/15 14:22:28;;;;;;;;;;;26.50;44.20;;;25.47;46.43;101678.00;12129723;19;20331;-87
2023/09/15 14:26:30;;;;;;;;;;;26.40;43.60;;;25.46;46.50;101672.81;12124131;19;20346;-87
2023/09/15 14:30:31;;;;;;;;;;;26.40;44.20;;;25.44;46.65;101683.69;12125117;19;20726;-87
2023/09/15 14:34:33;;;;;;;;;;;26.30;44.20;;;25.39;46.49;101673.44;12126981;19;19933;-87
2023/09/15 14:38:34;;;;;;;;;;;26.30;44.40;;;25.45;46.31;101677.31;12129641;19;20786;-87
2023/09/15 14:42:38;;;;;;;;;;;26.20;44.40;;;25.45;46.35;101669.31;12131945;19;20679;-87
2023/09/15 14:46:39;;;;;;;;;;;26.20;44.50;;;25.52;46.20;101672.16;12127878;19;19915;-87
2023/09/15 14:50:41;;;;;;;;;;;26.20;44.50;;;25.54;46.57;101668.34;12129661;19;20891;-87
2023/09/15 14:54:42;;;;;;;;;;;26.30;44.10;;;25.56;46.45;101666.34;12130053;19;19925;-87
2023/09/15 14:58:45;;;;;;;;;;;26.30;44.40;;;25.60;46.41;101662.38;12130595;19;19914;-87
2023/09/15 15:02:46;;;;;;;;;;;26.30;44.40;;;25.53;46.38;101655.13;12125184;19;19929;-87
2023/09/15 15:06:48;;;;;;;;;;;26.30;44.50;;;25.60;46.33;101659.69;12116028;19;19930;-87
2023/09/15 15:10:49;;;;;;;;;;;26.30;44.20;;;25.55;46.54;101653.97;12121272;19;19914;-87
2023/09/15 15:14:54;;;;;;;;;;;26.30;44.40;;;25.49;46.33;101640.38;12122802;19;20323;-87
2023/09/15 15:18:56;;;;;;;;;;;26.30;44.40;;;25.59;46.12;101662.50;12121959;19;21032;-87
2023/09/15 15:22:57;;;;;;;;;;;26.30;44.40;;;25.53;45.90;101644.44;12121289;19;19926;-87
2023/09/15 15:26:59;;;;;;;;;;;26.30;44.50;;;25.56;46.41;101655.66;12121246;19;19925;-87
2023/09/15 15:31:00;;;;;;;;;;;26.30;44.20;;;25.55;46.04;101648.63;12121488;19;19927;-87
2023/09/15 15:35:02;;;;;;;;;;;26.30;44.30;;;25.53;45.82;101655.13;12118588;19;19938;-87
2023/09/15 15:39:06;;;;;;;;;;;26.30;43.70;;;25.52;45.83;101651.63;12134908;19;19923;-87
2023/09/15 15:43:08;;;;;;;;;;;26.30;44.30;;;25.53;46.25;101652.47;12121193;19;19915;-87
2023/09/15 15:47:09;;;;;;;;;;;26.30;44.30;;;25.45;45.82;101639.88;12117524;19;19914;-87
2023/09/15 15:51:10;;;;;;;;;;;26.30;44.60;;;25.52;46.10;101645.41;12118114;19;20191;-87
2023/09/15 15:55:12;;;;;;;;;;;26.20;44.60;;;25.53;46.06;101653.28;12120757;19;20020;-87
2023/09/15 15:59:13;;;;;;;;;;;26.20;44.70;;;25.45;45.76;101637.22;12120798;19;19923;-87
2023/09/15 16:03:15;;;;;;;;;;;26.20;44.80;;;25.53;46.21;101652.47;12120507;19;20796;-87
2023/09/15 16:07:17;;;;;;;;;;;26.20;44.90;;;25.36;46.23;101625.63;12115992;19;19927;-87
2023/09/15 16:11:18;;;;;;;;;;;26.20;44.90;;;25.43;45.92;101636.53;12115956;19;19918;-87
2023/09/15 16:15:20;;;;;;;;;;;26.20;44.90;;;25.31;46.19;101611.91;12135666;19;19958;-87
2023/09/15 16:19:22;;;;;;;;;;;26.20;44.90;;;25.37;45.94;101626.47;12129998;19;19915;-87
2023/09/15 16:23:24;;;;;;;;;;;26.10;44.90;;;25.35;45.88;101636.47;12128894;19;19926;-87
2023/09/15 16:27:26;;;;;;;;;;;26.00;44.90;;;25.26;46.01;101635.59;12135502;19;19929;-87
2023/09/15 16:31:27;;;;;;;;;;;26.00;44.90;;;25.18;45.93;101632.88;12130763;19;20471;-87
2023/09/15 16:35:29;;;;;;;;;;;25.90;44.90;;;25.20;46.15;101646.94;12134313;19;19935;-87
2023/09/15 16:39:30;;;;;;;;;;;25.90;45.00;;;25.14;46.07;101645.72;12136779;19;19933;-87
2023/09/15 16:43:32;;;;;;;;;;;25.80;45.00;;;25.04;45.73;101639.63;12135432;19;19938;-87
2023/09/15 16:47:34;;;;;;;;;;;25.80;45.00;;;25.02;46.13;101633.59;12145410;19;20275;-87
2023/09/15 16:51:35;;;;;;;;;;;25.70;45.10;;;25.02;45.93;101648.78;12144104;19;20487;-87
2023/09/15 16:55:36;;;;;;;;;;;25.60;45.10;;;24.91;45.85;101636.53;12149799;19;19922;-87
2023/09/15 16:59:38;;;;;;;;;;;25.60;45.20;;;24.88;46.15;101647.53;12146315;19;20054;-87
2023/09/15 17:03:39;;;;;;;;;;;25.50;45.20;;;24.75;45.70;101639.09;12148517;19;20568;-87
2023/09/15 17:07:40;;;;;;;;;;;25.40;45.20;;;24.74;45.78;101646.25;12147625;19;20188;-87
2023/09/15 17:11:42;;;;;;;;;;;25.30;45.20;;;24.64;46.22;101646.34;12143899;19;19929;-87
2023/09/15 17:15:47;;;;;;;;;;;25.30;45.20;;;24.65;45.87;101657.84;12141933;19;20405;-87
2023/09/15 17:19:49;;;;;;;;;;;25.20;45.20;;;24.57;45.92;101655.94;12146105;19;20201;-87
2023/09/15 17:23:53;;;;;;;;;;;25.10;45.30;;;24.43;45.96;101643.13;12149094;19;19927;-87
2023/09/15 17:27:56;;;;;;;;;;;25.10;45.30;;;24.45;46.15;101667.88;12145752;19;19946;-87
2023/09/15 17:31:57;;;;;;;;;;;25.00;45.30;;;24.29;45.95;101661.34;12147513;19;20423;-87
2023/09/15 17:36:00;;;;;;;;;;;24.90;45.40;;;24.25;45.77;101668.00;12145907;19;20390;-87
2023/09/15 17:40:04;;;;;;;;;;;24.80;45.20;;;24.20;45.79;101678.28;12145067;19;19958;-87
2023/09/15 17:44:07;;;;;;;;;;;24.70;45.20;;;24.05;46.00;101661.09;12146795;19;20768;-89
2023/09/15 17:48:09;;;;;;;;;;;24.70;45.20;;;23.97;46.18;101669.00;12147663;19;19926;-87
2023/09/15 17:52:12;;;;;;;;;;;24.60;45.30;;;23.92;46.00;101677.44;12143341;19;19931;-87
2023/09/15 17:56:13;;;;;;;;;;;24.50;45.40;;;23.88;46.09;101677.91;12142845;19;20758;-87
2023/09/15 18:00:16;;;;;;;;;;;24.40;45.30;;;23.79;45.89;101688.47;12133729;19;20742;-87
2023/09/15 18:04:18;;;;;;;;;;;24.30;45.70;;;23.68;45.79;101669.09;12142402;19;20196;-87
2023/09/15 18:08:19;;;;;;;;;;;24.30;45.40;;;23.45;45.66;101647.31;12142103;19;19951;-87